createdAt,value
2022-12-11T00:01:22.129Z,20.70
2022-12-11T00:04:25.413Z,18.97
2022-12-11T00:07:28.439Z,21.63
2022-12-11T00:10:37.511Z,20.40
2022-12-11T00:13:42.484Z,15.60
2022-12-11T00:16:45.464Z,16.37
2022-12-11T00:19:48.423Z,17.77
2022-12-11T00:22:51.360Z,17.47
2022-12-11T00:25:54.351Z,18.97
2022-12-11T00:28:59.069Z,18.67
2022-12-11T00:32:02.065Z,19.87
2022-12-11T00:35:05.469Z,18.23
2022-12-11T00:38:08.885Z,20.93
2022-12-11T00:41:12.001Z,22.23
2022-12-11T00:44:16.331Z,21.63
2022-12-11T00:47:19.253Z,22.40
2022-12-11T00:50:22.414Z,24.53
2022-12-11T00:53:25.465Z,20.20
2022-12-11T00:56:28.400Z,19.97
2022-12-11T00:59:32.714Z,18.57
2022-12-11T01:02:36.016Z,20.03
2022-12-11T01:05:38.968Z,18.43
2022-12-11T01:08:41.924Z,18.17
2022-12-11T01:11:44.162Z,17.33
2022-12-11T01:14:48.446Z,22.03
2022-12-11T01:17:57.927Z,21.10
2022-12-11T01:21:00.843Z,22.17
2022-12-11T01:24:03.803Z,18.47
2022-12-11T01:27:06.744Z,20.17
2022-12-11T01:30:12.155Z,18.57
2022-12-11T01:33:15.076Z,20.80
2022-12-11T01:36:19.534Z,19.07
2022-12-11T01:39:22.659Z,22.20
2022-12-11T01:42:26.202Z,20.40
2022-12-11T01:45:45.040Z,20.27
2022-12-11T01:48:48.146Z,18.77
2022-12-11T01:51:54.495Z,20.57
2022-12-11T01:54:57.499Z,22.70
2022-12-11T01:58:01.331Z,20.63
2022-12-11T02:01:05.857Z,20.80
2022-12-11T02:04:10.931Z,23.63
2022-12-11T02:07:14.107Z,23.60
2022-12-11T02:10:17.430Z,21.57
2022-12-11T02:13:27.981Z,22.87
2022-12-11T02:16:39.393Z,21.97
2022-12-11T02:19:55.091Z,20.83
2022-12-11T02:23:21.261Z,20.80
2022-12-11T02:26:38.492Z,18.17
2022-12-11T02:29:50.521Z,23.67
2022-12-11T02:32:56.936Z,22.67
2022-12-11T02:36:01.844Z,29.10
2022-12-11T02:39:06.994Z,26.70
2022-12-11T02:42:12.348Z,27.77
2022-12-11T02:45:18.839Z,24.03
2022-12-11T02:48:23.168Z,25.80
2022-12-11T02:51:31.444Z,27.03
2022-12-11T02:54:39.468Z,23.60
2022-12-11T02:57:46.682Z,26.13
2022-12-11T03:00:51.149Z,25.27
2022-12-11T03:03:54.352Z,23.50
2022-12-11T03:07:02.954Z,22.53
2022-12-11T03:10:07.807Z,24.07
2022-12-11T03:13:11.210Z,27.00
2022-12-11T03:16:25.514Z,23.03
2022-12-11T03:19:34.887Z,24.90
2022-12-11T03:22:44.876Z,24.77
2022-12-11T03:25:54.603Z,25.70
2022-12-11T03:29:01.296Z,22.73
2022-12-11T03:32:10.431Z,23.77
2022-12-11T03:35:17.526Z,21.30
2022-12-11T03:38:25.261Z,21.57
2022-12-11T03:41:30.672Z,25.20
2022-12-11T03:44:35.401Z,24.23
2022-12-11T03:47:42.214Z,24.93
2022-12-11T03:50:47.325Z,22.13
2022-12-11T03:53:50.353Z,22.40
2022-12-11T03:56:57.326Z,23.57
2022-12-11T04:00:00.417Z,24.57
2022-12-11T04:03:14.619Z,25.73
2022-12-11T04:06:17.767Z,22.73
2022-12-11T04:09:20.679Z,24.30
2022-12-11T04:12:23.632Z,24.13
2022-12-11T04:15:25.586Z,25.10
2022-12-11T04:18:47.598Z,20.90
2022-12-11T04:22:08.119Z,26.93
2022-12-11T04:25:11.664Z,23.13
2022-12-11T04:28:16.860Z,24.57
2022-12-11T04:34:50.853Z,25.90
2022-12-11T04:37:53.871Z,28.80
2022-12-11T04:41:00.719Z,22.30
2022-12-11T04:44:03.681Z,25.37
2022-12-11T04:47:06.743Z,26.60
2022-12-11T04:50:12.799Z,22.63
2022-12-11T04:53:15.670Z,24.07
2022-12-11T04:56:18.766Z,24.90
2022-12-11T04:59:21.762Z,26.63
2022-12-11T05:02:24.807Z,29.00
2022-12-11T05:05:29.154Z,28.07
2022-12-11T05:08:32.133Z,25.13
2022-12-11T05:11:35.054Z,26.63
2022-12-11T05:14:38.009Z,23.87
2022-12-11T05:17:40.969Z,26.57
2022-12-11T05:20:45.347Z,22.30
2022-12-11T05:23:48.357Z,23.90
2022-12-11T05:26:51.314Z,26.20
2022-12-11T05:29:59.211Z,25.17
2022-12-11T05:33:02.578Z,24.73
2022-12-11T05:36:08.365Z,28.87
2022-12-11T05:39:13.116Z,28.10
2022-12-11T05:42:16.034Z,25.63
2022-12-11T05:45:19.175Z,24.07
2022-12-11T05:48:22.207Z,25.03
2022-12-11T05:51:26.737Z,26.20
2022-12-11T05:54:29.709Z,25.77
2022-12-11T05:57:32.626Z,29.97
2022-12-11T06:00:36.263Z,28.60
2022-12-11T06:03:39.432Z,31.13
2022-12-11T06:06:44.709Z,29.93
2022-12-11T06:09:47.618Z,31.20
2022-12-11T06:12:50.475Z,26.40
2022-12-11T06:15:53.977Z,28.43
2022-12-11T06:18:58.532Z,28.43
2022-12-11T06:22:03.075Z,24.97
2022-12-11T06:25:07.167Z,27.57
2022-12-11T06:28:10.319Z,28.90
2022-12-11T06:31:14.125Z,28.33
2022-12-11T06:34:18.675Z,22.70
2022-12-11T06:37:23.032Z,21.67
2022-12-11T06:40:25.923Z,22.73
2022-12-11T06:43:28.992Z,22.63
2022-12-11T06:46:31.983Z,24.57
2022-12-11T06:49:34.899Z,23.30
2022-12-11T06:52:39.346Z,26.87
2022-12-11T06:55:42.750Z,20.90
2022-12-11T06:58:45.687Z,24.53
2022-12-11T07:01:48.714Z,20.00
2022-12-11T07:04:55.026Z,20.30
2022-12-11T07:07:59.953Z,23.23
2022-12-11T07:11:06.554Z,18.30
2022-12-11T07:14:10.294Z,18.67
2022-12-11T07:17:13.414Z,16.07
2022-12-11T07:20:17.247Z,14.80
2022-12-11T07:23:21.575Z,15.70
2022-12-11T07:26:24.516Z,17.83
2022-12-11T07:29:27.423Z,16.27
2022-12-11T07:32:30.589Z,14.47
2022-12-11T07:35:35.346Z,14.73
2022-12-11T07:38:40.069Z,21.03
2022-12-11T07:41:43.143Z,17.57
2022-12-11T07:44:46.130Z,17.30
2022-12-11T07:47:49.070Z,15.20
2022-12-11T07:50:51.978Z,15.00
2022-12-11T07:53:58.569Z,17.13
2022-12-11T07:57:01.482Z,18.57
2022-12-11T08:00:05.454Z,17.27
2022-12-11T08:03:08.932Z,16.13
2022-12-11T08:06:12.758Z,16.37
2022-12-11T08:09:21.033Z,15.07
2022-12-11T08:12:24.112Z,17.17
2022-12-11T08:15:27.057Z,18.23
2022-12-11T08:18:30.391Z,17.57
2022-12-11T08:21:33.381Z,17.40
2022-12-11T08:24:37.667Z,14.80
2022-12-11T08:27:40.538Z,16.83
2022-12-11T08:30:43.540Z,16.27
2022-12-11T08:33:47.388Z,16.00
2022-12-11T08:36:50.439Z,17.57
2022-12-11T08:39:54.696Z,17.33
2022-12-11T08:42:57.670Z,13.83
2022-12-11T08:46:00.628Z,16.00
2022-12-11T08:49:03.684Z,16.17
2022-12-11T08:52:07.032Z,19.93
2022-12-11T08:55:11.676Z,17.63
2022-12-11T08:58:14.819Z,14.57
2022-12-11T09:01:21.479Z,17.93
2022-12-11T09:04:24.892Z,17.50
2022-12-11T09:07:28.161Z,15.20
2022-12-11T09:10:32.452Z,15.33
2022-12-11T09:13:35.841Z,16.23
2022-12-11T09:16:40.982Z,17.60
2022-12-11T09:19:44.116Z,14.40
2022-12-11T09:22:47.014Z,15.90
2022-12-11T09:25:51.304Z,18.00
2022-12-11T09:28:54.860Z,13.20
2022-12-11T09:31:57.796Z,17.43
2022-12-11T09:35:00.779Z,16.17
2022-12-11T09:38:03.708Z,18.63
2022-12-11T09:41:30.970Z,16.70
2022-12-11T09:44:39.009Z,14.73
2022-12-11T09:47:45.389Z,15.87
2022-12-11T09:50:52.125Z,17.33
2022-12-11T09:53:57.567Z,15.43
2022-12-11T09:57:08.922Z,15.40
2022-12-11T10:00:25.587Z,14.97
2022-12-11T10:03:46.454Z,18.37
2022-12-11T10:06:57.865Z,15.00
2022-12-11T10:10:08.729Z,15.57
2022-12-11T10:13:26.290Z,18.27
2022-12-11T10:16:36.890Z,17.50
2022-12-11T10:19:42.031Z,15.00
2022-12-11T10:22:46.459Z,15.80
2022-12-11T10:25:54.856Z,16.67
2022-12-11T10:29:01.427Z,16.13
2022-12-11T10:32:07.121Z,17.87
2022-12-11T10:35:19.200Z,18.63
2022-12-11T10:38:27.449Z,15.63
2022-12-11T10:41:38.937Z,15.10
2022-12-11T10:44:43.306Z,16.73
2022-12-11T10:47:46.276Z,14.53
2022-12-11T10:50:59.184Z,14.13
2022-12-11T10:54:07.637Z,15.00
2022-12-11T10:57:14.407Z,15.33
2022-12-11T11:00:33.933Z,14.97
2022-12-11T11:03:43.070Z,20.30
2022-12-11T11:06:46.053Z,16.17
2022-12-11T11:09:49.404Z,18.87
2022-12-11T11:13:01.284Z,18.97
2022-12-11T11:16:09.794Z,17.43
2022-12-11T11:19:21.335Z,19.13
2022-12-11T11:22:24.295Z,17.33
2022-12-11T11:25:29.053Z,17.37
2022-12-11T11:28:37.194Z,16.03
2022-12-11T11:31:42.318Z,15.13
2022-12-11T11:34:45.334Z,16.87
2022-12-11T11:37:59.163Z,18.80
2022-12-11T11:41:15.100Z,17.63
2022-12-11T11:44:26.348Z,18.67
2022-12-11T11:47:36.054Z,16.83
2022-12-11T11:50:44.758Z,16.77
2022-12-11T11:53:50.796Z,21.23
2022-12-11T11:56:56.787Z,18.63
2022-12-11T12:00:09.772Z,18.43
2022-12-11T12:03:17.998Z,17.87
2022-12-11T12:06:31.349Z,16.93
2022-12-11T12:09:43.879Z,18.10
2022-12-11T12:12:54.850Z,18.63
2022-12-11T12:15:59.632Z,19.17
2022-12-11T12:19:13.640Z,16.83
2022-12-11T12:22:29.463Z,18.37
2022-12-11T12:25:39.858Z,16.70
2022-12-11T12:28:51.845Z,22.80
2022-12-11T12:32:06.155Z,18.63
2022-12-11T12:35:27.945Z,18.33
2022-12-11T12:38:41.239Z,19.43
2022-12-11T12:41:51.993Z,17.13
2022-12-11T12:45:00.734Z,16.83
2022-12-11T12:48:03.627Z,16.77
2022-12-11T12:51:08.652Z,18.33
2022-12-11T12:54:16.773Z,17.33
2022-12-11T12:57:20.140Z,18.60
2022-12-11T13:00:31.428Z,19.30
2022-12-11T13:03:37.984Z,17.13
2022-12-11T13:06:44.263Z,18.63
2022-12-11T13:10:01.693Z,20.63
2022-12-11T13:13:06.459Z,18.60
2022-12-11T13:16:25.675Z,17.37
2022-12-11T13:19:29.420Z,17.30
2022-12-11T13:22:33.700Z,18.33
2022-12-11T13:25:49.436Z,18.67
2022-12-11T13:28:52.405Z,16.57
2022-12-11T13:31:59.308Z,20.30
2022-12-11T13:35:07.399Z,16.17
2022-12-11T13:38:19.533Z,18.47
2022-12-11T13:41:22.936Z,17.07
2022-12-11T13:44:28.600Z,17.60
2022-12-11T13:47:32.942Z,18.17
2022-12-11T13:50:36.882Z,17.93
2022-12-11T13:53:41.156Z,17.37
2022-12-11T13:56:58.695Z,18.00
2022-12-11T14:00:01.630Z,15.43
2022-12-11T14:03:08.263Z,18.70
2022-12-11T14:06:18.312Z,17.63
2022-12-11T14:09:26.311Z,16.23
2022-12-11T14:12:31.066Z,16.70
2022-12-11T14:15:36.598Z,14.67
2022-12-11T14:18:39.904Z,17.77
2022-12-11T14:21:42.885Z,19.80
2022-12-11T14:24:51.867Z,15.87
2022-12-11T14:27:57.081Z,20.77
2022-12-11T14:31:01.902Z,18.63
2022-12-11T14:34:09.155Z,18.17
2022-12-11T14:37:13.837Z,17.57
2022-12-11T14:40:21.541Z,21.77
2022-12-11T14:43:28.618Z,18.87
2022-12-11T14:46:37.783Z,17.07
2022-12-11T14:49:47.583Z,18.17
2022-12-11T14:52:53.494Z,20.40
2022-12-11T14:56:01.598Z,21.60
2022-12-11T14:59:10.040Z,19.93
2022-12-11T15:02:25.917Z,18.17
2022-12-11T15:05:29.589Z,17.80
2022-12-11T15:08:34.713Z,20.47
2022-12-11T15:11:39.075Z,18.80
2022-12-11T15:14:51.603Z,20.63
2022-12-11T15:17:54.656Z,17.97
2022-12-11T15:21:00.501Z,17.00
2022-12-11T15:24:05.353Z,20.27
2022-12-11T15:27:26.873Z,18.03
2022-12-11T15:30:34.164Z,17.57
2022-12-11T15:33:46.769Z,19.20
2022-12-11T15:36:49.740Z,18.33
2022-12-11T15:39:53.522Z,17.80
2022-12-11T15:42:58.694Z,17.47
2022-12-11T15:46:02.853Z,17.17
2022-12-11T15:49:13.570Z,15.97
2022-12-11T15:52:16.660Z,17.50
2022-12-11T15:55:20.733Z,18.87
2022-12-11T15:58:27.247Z,16.33
2022-12-11T16:01:30.169Z,20.23
2022-12-11T16:04:33.128Z,17.27
2022-12-11T16:07:36.325Z,21.93
2022-12-11T16:10:39.228Z,16.87
2022-12-11T16:13:43.574Z,19.63
2022-12-11T16:16:46.519Z,20.40
2022-12-11T16:19:49.488Z,20.30
2022-12-11T16:22:52.524Z,17.70
2022-12-11T16:25:55.519Z,18.97
2022-12-11T16:28:59.857Z,19.80
2022-12-11T16:32:02.796Z,19.53
2022-12-11T16:35:06.435Z,18.77
2022-12-11T16:38:09.989Z,24.17
2022-12-11T16:41:12.997Z,20.30
2022-12-11T16:44:20.612Z,17.30
2022-12-11T16:47:23.577Z,19.00
2022-12-11T16:50:26.566Z,20.93
2022-12-11T16:53:29.630Z,23.33
2022-12-11T16:56:32.551Z,22.47
2022-12-11T16:59:37.710Z,22.97
2022-12-11T17:02:40.991Z,22.90
2022-12-11T17:05:45.303Z,26.17
2022-12-11T17:08:48.441Z,25.93
2022-12-11T17:11:51.401Z,24.37
2022-12-11T17:14:55.736Z,18.93
2022-12-11T17:17:58.659Z,19.80
2022-12-11T17:21:06.673Z,20.77
2022-12-11T17:24:10.382Z,19.53
2022-12-11T17:27:13.581Z,18.53
2022-12-11T17:30:18.130Z,19.47
2022-12-11T17:33:21.262Z,26.50
2022-12-11T17:36:24.249Z,24.43
2022-12-11T17:39:27.208Z,21.80
2022-12-11T17:42:30.121Z,20.90
2022-12-11T17:45:34.417Z,24.63
2022-12-11T17:48:37.399Z,23.27
2022-12-11T17:51:40.321Z,23.70
2022-12-11T17:54:43.204Z,21.90
2022-12-11T17:57:46.077Z,22.50
2022-12-11T18:00:54.401Z,24.63
2022-12-11T18:03:57.442Z,26.73
2022-12-11T18:07:00.510Z,23.73
2022-12-11T18:10:03.702Z,24.70
2022-12-11T18:13:06.775Z,23.67
2022-12-11T18:16:14.142Z,19.93
2022-12-11T18:19:17.230Z,20.17
2022-12-11T18:22:20.475Z,21.80
2022-12-11T18:25:23.534Z,21.97
2022-12-11T18:28:26.759Z,21.63
2022-12-11T18:31:31.181Z,20.93
2022-12-11T18:34:34.300Z,23.23
2022-12-11T18:37:37.665Z,22.93
2022-12-11T18:40:40.595Z,24.13
2022-12-11T18:43:43.768Z,21.63
2022-12-11T18:46:49.450Z,23.47
2022-12-11T18:49:52.541Z,22.97
2022-12-11T18:52:56.953Z,21.63
2022-12-11T18:56:00.696Z,21.97
2022-12-11T18:59:04.613Z,22.93
2022-12-11T19:02:09.151Z,21.47
2022-12-11T19:05:13.299Z,24.10
2022-12-11T19:08:16.897Z,24.27
2022-12-11T19:11:22.000Z,24.93
2022-12-11T19:14:24.954Z,23.90
2022-12-11T19:17:29.330Z,26.37
2022-12-11T19:20:48.697Z,24.13
2022-12-11T19:23:52.344Z,22.80
2022-12-11T19:26:55.262Z,22.60
2022-12-11T19:30:00.391Z,24.03
2022-12-11T19:33:04.858Z,22.50
2022-12-11T19:36:10.291Z,23.17
2022-12-11T19:39:14.239Z,22.93
2022-12-11T19:42:17.255Z,20.50
2022-12-11T19:45:20.392Z,21.07
2022-12-11T19:48:24.726Z,24.50
2022-12-11T19:51:30.331Z,21.63
2022-12-11T19:54:33.340Z,18.57
2022-12-11T19:57:36.511Z,23.97
2022-12-11T20:00:39.455Z,20.07
2022-12-11T20:03:43.846Z,19.97
2022-12-11T20:06:48.310Z,20.07
2022-12-11T20:09:51.375Z,22.90
2022-12-11T20:12:56.454Z,22.00
2022-12-11T20:15:59.814Z,21.83
2022-12-11T20:19:05.069Z,20.37
2022-12-11T20:22:09.006Z,19.00
2022-12-11T20:25:12.304Z,19.90
2022-12-11T20:28:15.537Z,21.67
2022-12-11T20:31:20.771Z,22.47
2022-12-11T20:34:25.151Z,23.00
2022-12-11T20:37:29.025Z,21.50
2022-12-11T20:40:31.997Z,21.47
2022-12-11T20:43:35.083Z,24.30
2022-12-11T20:46:38.013Z,22.47
2022-12-11T20:49:42.346Z,20.03
2022-12-11T20:52:45.478Z,23.90
2022-12-11T20:55:48.385Z,23.23
2022-12-11T20:58:51.375Z,20.87
2022-12-11T21:01:54.345Z,23.17
2022-12-11T21:04:58.909Z,24.70
2022-12-11T21:08:01.868Z,23.37
2022-12-11T21:11:07.096Z,22.23
2022-12-11T21:14:10.043Z,26.50
2022-12-11T21:17:12.926Z,25.90
2022-12-11T21:20:17.472Z,24.50
2022-12-11T21:23:20.423Z,24.03
2022-12-11T21:26:23.513Z,24.37
2022-12-11T21:29:29.187Z,26.17
2022-12-11T21:32:32.206Z,27.70
2022-12-11T21:35:36.542Z,29.73
2022-12-11T21:38:40.699Z,25.37
2022-12-11T21:41:43.749Z,25.00
2022-12-11T21:48:09.564Z,28.80
2022-12-11T21:51:15.771Z,29.87
2022-12-11T21:54:20.031Z,31.60
2022-12-11T21:57:26.632Z,27.97
2022-12-11T22:00:29.983Z,29.17
2022-12-11T22:03:33.322Z,29.07
2022-12-11T22:06:37.904Z,32.87
2022-12-11T22:09:40.803Z,30.23
2022-12-11T22:12:43.817Z,34.33
2022-12-11T22:15:47.046Z,34.13
2022-12-11T22:18:50.017Z,29.17
2022-12-11T22:21:54.237Z,32.07
2022-12-11T22:24:57.155Z,32.70
2022-12-11T22:28:00.108Z,36.43
2022-12-11T22:31:03.187Z,34.97
2022-12-11T22:34:06.175Z,31.77
2022-12-11T22:37:10.405Z,36.27
2022-12-11T22:40:13.682Z,31.93
2022-12-11T22:43:16.644Z,29.67
2022-12-11T22:46:24.708Z,30.23
2022-12-11T22:49:27.687Z,32.87
2022-12-11T22:52:31.997Z,31.37
2022-12-11T22:55:35.207Z,29.63
2022-12-11T22:58:38.523Z,29.73
2022-12-11T23:01:41.683Z,30.10
2022-12-11T23:04:44.766Z,30.80
2022-12-11T23:07:49.166Z,30.57
2022-12-11T23:10:52.948Z,29.43
2022-12-11T23:13:56.883Z,30.53
2022-12-11T23:16:59.966Z,30.37
2022-12-11T23:20:05.582Z,29.53
2022-12-11T23:23:09.843Z,29.43
2022-12-11T23:26:15.075Z,27.93
2022-12-11T23:29:18.019Z,30.77
2022-12-11T23:32:20.983Z,29.00
2022-12-11T23:35:24.055Z,27.57
2022-12-11T23:38:28.590Z,32.53
2022-12-11T23:41:31.495Z,30.93
2022-12-11T23:44:34.422Z,29.27
2022-12-11T23:47:37.595Z,32.73
2022-12-11T23:50:40.884Z,28.80
2022-12-11T23:53:45.907Z,31.90
2022-12-11T23:56:48.843Z,36.50
2022-12-11T23:59:51.819Z,32.60
